Alvin, Wisconsin
Current Conditions -  °F | °C
As of 2:35 AM on Saturday 25 Oct 2014 (Local Time) from KEGV Reporting Station
Haze Haze  
Wind Chill: 51°   Ceiling: Unl
Heat Index: 51°   Visibility: 5mi
Dew Point: 50°   Wind: 8mph
Humidity: 97%   Direction: 260°W
Pressure: 29.79"   Gusts: NA
Location:  45.9186°N, 88.7601°W
Report Text: KEGV 250735Z AUTO 26007KT 5SM BR CLR 10/10 A2979 RMK AO2 T01040100
Loading
Personal Weather Stations






























Interactive Weather Map New forecast layout! Learn more

10-Day Weather Forecast

Advertisements
Track Severe Weather on mobile